sensor_id;sensor_type;location;lat;lon;timestamp;pressure;altitude;pressure_sealevel;temperature;humidity
36222;BME280;22266;52.340;4.962;2023-03-13T00:01:01;100034.59;;;9.17;85.50
36222;BME280;22266;52.340;4.962;2023-03-13T00:03:28;100039.34;;;9.15;85.01
36222;BME280;22266;52.340;4.962;2023-03-13T00:05:58;100035.44;;;9.18;85.79
36222;BME280;22266;52.340;4.962;2023-03-13T00:08:27;100023.88;;;9.17;85.16
36222;BME280;22266;52.340;4.962;2023-03-13T00:10:54;100010.44;;;9.17;85.55
36222;BME280;22266;52.340;4.962;2023-03-13T00:13:21;100011.91;;;9.20;85.47
36222;BME280;22266;52.340;4.962;2023-03-13T00:15:47;100006.72;;;9.18;85.51
36222;BME280;22266;52.340;4.962;2023-03-13T00:18:14;100005.66;;;9.19;85.97
36222;BME280;22266;52.340;4.962;2023-03-13T00:20:40;99991.63;;;9.17;86.11
36222;BME280;22266;52.340;4.962;2023-03-13T00:23:06;99973.06;;;9.15;85.65
36222;BME280;22266;52.340;4.962;2023-03-13T00:25:33;99965.00;;;9.15;86.22
36222;BME280;22266;52.340;4.962;2023-03-13T00:27:59;99962.72;;;9.19;85.96
36222;BME280;22266;52.340;4.962;2023-03-13T00:30:26;99963.75;;;9.18;86.42
36222;BME280;22266;52.340;4.962;2023-03-13T00:32:52;99947.84;;;9.16;86.46
36222;BME280;22266;52.340;4.962;2023-03-13T00:35:19;99942.50;;;9.16;87.01
36222;BME280;22266;52.340;4.962;2023-03-13T00:37:46;99930.50;;;9.12;87.01
36222;BME280;22266;52.340;4.962;2023-03-13T00:40:12;99914.81;;;9.16;87.11
36222;BME280;22266;52.340;4.962;2023-03-13T00:42:40;99919.97;;;9.18;87.01
36222;BME280;22266;52.340;4.962;2023-03-13T00:45:06;99912.13;;;9.09;87.56
36222;BME280;22266;52.340;4.962;2023-03-13T00:47:33;99897.69;;;9.04;88.07
36222;BME280;22266;52.340;4.962;2023-03-13T00:50:00;99895.38;;;9.07;88.77
36222;BME280;22266;52.340;4.962;2023-03-13T00:52:27;99891.06;;;9.13;87.94
36222;BME280;22266;52.340;4.962;2023-03-13T00:54:53;99886.94;;;9.17;87.91
36222;BME280;22266;52.340;4.962;2023-03-13T00:57:20;99877.81;;;9.18;87.90
36222;BME280;22266;52.340;4.962;2023-03-13T00:59:47;99881.97;;;9.14;88.81
36222;BME280;22266;52.340;4.962;2023-03-13T01:02:13;99864.41;;;9.18;88.86
36222;BME280;22266;52.340;4.962;2023-03-13T01:04:40;99869.97;;;9.23;89.04
36222;BME280;22266;52.340;4.962;2023-03-13T01:07:06;99863.38;;;9.26;88.71
36222;BME280;22266;52.340;4.962;2023-03-13T01:09:33;99852.84;;;9.24;88.61
36222;BME280;22266;52.340;4.962;2023-03-13T01:11:59;99841.47;;;9.22;88.75
36222;BME280;22266;52.340;4.962;2023-03-13T01:14:26;99840.88;;;9.20;88.64
36222;BME280;22266;52.340;4.962;2023-03-13T01:16:52;99830.53;;;9.24;89.67
36222;BME280;22266;52.340;4.962;2023-03-13T01:19:18;99812.34;;;9.26;89.55
36222;BME280;22266;52.340;4.962;2023-03-13T01:21:45;99811.28;;;9.27;89.87
36222;BME280;22266;52.340;4.962;2023-03-13T01:24:12;99797.88;;;9.27;89.68
36222;BME280;22266;52.340;4.962;2023-03-13T01:26:39;99794.16;;;9.28;89.81
36222;BME280;22266;52.340;4.962;2023-03-13T01:29:06;99787.34;;;9.25;90.43
36222;BME280;22266;52.340;4.962;2023-03-13T01:31:34;99787.56;;;9.24;90.50
36222;BME280;22266;52.340;4.962;2023-03-13T01:34:03;99786.50;;;9.31;90.79
36222;BME280;22266;52.340;4.962;2023-03-13T01:36:31;99776.38;;;9.27;91.16
36222;BME280;22266;52.340;4.962;2023-03-13T01:38:59;99780.13;;;9.26;91.15
36222;BME280;22266;52.340;4.962;2023-03-13T01:41:28;99779.47;;;9.30;92.00
36222;BME280;22266;52.340;4.962;2023-03-13T01:43:56;99758.63;;;9.26;92.08
36222;BME280;22266;52.340;4.962;2023-03-13T01:46:29;99758.41;;;9.34;92.03
36222;BME280;22266;52.340;4.962;2023-03-13T01:49:09;99756.91;;;9.45;91.70
36222;BME280;22266;52.340;4.962;2023-03-13T01:52:18;99744.91;;;9.47;91.80
36222;BME280;22266;52.340;4.962;2023-03-13T01:55:04;99726.91;;;9.48;92.21
36222;BME280;22266;52.340;4.962;2023-03-13T01:57:36;99715.34;;;9.54;91.66
36222;BME280;22266;52.340;4.962;2023-03-13T02:00:08;99712.25;;;9.50;91.78
36222;BME280;22266;52.340;4.962;2023-03-13T02:02:44;99714.28;;;9.55;92.30
36222;BME280;22266;52.340;4.962;2023-03-13T02:05:14;99694.00;;;9.59;92.08
36222;BME280;22266;52.340;4.962;2023-03-13T02:07:46;99691.94;;;9.61;91.99
36222;BME280;22266;52.340;4.962;2023-03-13T02:10:15;99683.66;;;9.62;92.97
36222;BME280;22266;52.340;4.962;2023-03-13T02:12:43;99684.06;;;9.66;93.08
36222;BME280;22266;52.340;4.962;2023-03-13T02:15:16;99667.31;;;9.64;92.75
36222;BME280;22266;52.340;4.962;2023-03-13T02:17:44;99661.31;;;9.69;93.15
36222;BME280;22266;52.340;4.962;2023-03-13T02:20:13;99660.03;;;9.71;92.78
36222;BME280;22266;52.340;4.962;2023-03-13T02:22:48;99658.97;;;9.72;92.75
36222;BME280;22266;52.340;4.962;2023-03-13T02:27:58;99644.69;;;9.78;93.89
36222;BME280;22266;52.340;4.962;2023-03-13T02:30:27;99640.13;;;9.79;93.06
36222;BME280;22266;52.340;4.962;2023-03-13T02:32:54;99636.41;;;9.80;94.19
36222;BME280;22266;52.340;4.962;2023-03-13T02:35:22;99637.41;;;9.85;93.76
36222;BME280;22266;52.340;4.962;2023-03-13T02:37:53;99631.38;;;9.90;94.01
36222;BME280;22266;52.340;4.962;2023-03-13T02:40:34;99625.16;;;9.89;93.95
36222;BME280;22266;52.340;4.962;2023-03-13T02:43:07;99631.78;;;9.87;94.51
36222;BME280;22266;52.340;4.962;2023-03-13T02:45:34;99612.59;;;9.83;94.38
36222;BME280;22266;52.340;4.962;2023-03-13T02:48:01;99623.16;;;9.85;94.44
36222;BME280;22266;52.340;4.962;2023-03-13T02:50:27;99616.06;;;9.90;95.03
36222;BME280;22266;52.340;4.962;2023-03-13T02:52:59;99619.38;;;9.93;94.92
36222;BME280;22266;52.340;4.962;2023-03-13T02:55:36;99615.53;;;10.00;95.27
36222;BME280;22266;52.340;4.962;2023-03-13T02:58:04;99614.34;;;9.96;94.86
36222;BME280;22266;52.340;4.962;2023-03-13T03:00:34;99608.38;;;9.94;95.20
36222;BME280;22266;52.340;4.962;2023-03-13T03:03:01;99618.47;;;9.99;95.57
36222;BME280;22266;52.340;4.962;2023-03-13T03:05:27;99630.00;;;10.06;95.34
36222;BME280;22266;52.340;4.962;2023-03-13T03:07:54;99624.22;;;10.02;95.77
36222;BME280;22266;52.340;4.962;2023-03-13T03:10:22;99621.94;;;10.06;96.12
36222;BME280;22266;52.340;4.962;2023-03-13T03:12:49;99615.28;;;10.08;96.53
36222;BME280;22266;52.340;4.962;2023-03-13T03:15:16;99611.94;;;10.13;96.02
36222;BME280;22266;52.340;4.962;2023-03-13T03:17:45;99609.41;;;10.18;96.07
36222;BME280;22266;52.340;4.962;2023-03-13T03:20:11;99608.97;;;10.21;96.29
36222;BME280;22266;52.340;4.962;2023-03-13T03:22:41;99602.53;;;10.22;96.62
36222;BME280;22266;52.340;4.962;2023-03-13T03:25:07;99588.38;;;10.33;96.55
36222;BME280;22266;52.340;4.962;2023-03-13T03:27:35;99591.91;;;10.34;96.34
36222;BME280;22266;52.340;4.962;2023-03-13T03:30:05;99590.59;;;10.36;96.21
36222;BME280;22266;52.340;4.962;2023-03-13T03:32:33;99581.34;;;10.32;96.31
36222;BME280;22266;52.340;4.962;2023-03-13T03:35:00;99572.97;;;10.40;96.72
36222;BME280;22266;52.340;4.962;2023-03-13T03:37:27;99588.09;;;10.42;96.85
36222;BME280;22266;52.340;4.962;2023-03-13T03:39:53;99589.28;;;10.46;96.81
36222;BME280;22266;52.340;4.962;2023-03-13T03:42:20;99591.38;;;10.44;96.43
36222;BME280;22266;52.340;4.962;2023-03-13T03:44:46;99589.44;;;10.51;96.62
36222;BME280;22266;52.340;4.962;2023-03-13T03:47:13;99578.06;;;10.49;96.47
36222;BME280;22266;52.340;4.962;2023-03-13T03:49:43;99568.97;;;10.50;96.42
36222;BME280;22266;52.340;4.962;2023-03-13T03:52:11;99561.25;;;10.53;96.56
36222;BME280;22266;52.340;4.962;2023-03-13T03:54:41;99573.44;;;10.56;96.30
36222;BME280;22266;52.340;4.962;2023-03-13T03:57:08;99566.09;;;10.63;96.50
36222;BME280;22266;52.340;4.962;2023-03-13T03:59:36;99565.72;;;10.59;96.40
36222;BME280;22266;52.340;4.962;2023-03-13T04:02:05;99564.69;;;10.60;96.29
36222;BME280;22266;52.340;4.962;2023-03-13T04:04:33;99553.34;;;10.58;96.27
36222;BME280;22266;52.340;4.962;2023-03-13T04:07:03;99550.78;;;10.63;96.87
36222;BME280;22266;52.340;4.962;2023-03-13T04:09:31;99553.09;;;10.60;96.63
36222;BME280;22266;52.340;4.962;2023-03-13T04:12:00;99550.53;;;10.65;96.70
36222;BME280;22266;52.340;4.962;2023-03-13T04:14:28;99555.09;;;10.64;96.92
36222;BME280;22266;52.340;4.962;2023-03-13T04:16:55;99548.69;;;10.66;96.93
36222;BME280;22266;52.340;4.962;2023-03-13T04:19:21;99545.41;;;10.63;97.17
36222;BME280;22266;52.340;4.962;2023-03-13T04:21:48;99545.31;;;10.70;97.44
36222;BME280;22266;52.340;4.962;2023-03-13T04:24:17;99547.09;;;10.76;97.12
36222;BME280;22266;52.340;4.962;2023-03-13T04:26:44;99543.22;;;10.72;96.76
36222;BME280;22266;52.340;4.962;2023-03-13T04:29:10;99547.69;;;10.78;97.31
36222;BME280;22266;52.340;4.962;2023-03-13T04:32:09;99533.19;;;10.79;96.98
36222;BME280;22266;52.340;4.962;2023-03-13T04:34:57;99543.50;;;10.82;96.91
36222;BME280;22266;52.340;4.962;2023-03-13T04:37:37;99540.44;;;10.79;97.23
36222;BME280;22266;52.340;4.962;2023-03-13T04:40:24;99543.25;;;10.84;96.87
36222;BME280;22266;52.340;4.962;2023-03-13T04:43:09;99535.88;;;10.79;97.07
36222;BME280;22266;52.340;4.962;2023-03-13T04:45:51;99530.63;;;10.84;97.04
36222;BME280;22266;52.340;4.962;2023-03-13T04:48:34;99517.59;;;10.81;97.05
36222;BME280;22266;52.340;4.962;2023-03-13T04:51:15;99533.56;;;10.83;96.99
36222;BME280;22266;52.340;4.962;2023-03-13T04:54:02;99527.94;;;10.84;96.91
36222;BME280;22266;52.340;4.962;2023-03-13T04:56:51;99513.88;;;10.82;97.34
36222;BME280;22266;52.340;4.962;2023-03-13T04:59:27;99521.16;;;10.82;97.47
36222;BME280;22266;52.340;4.962;2023-03-13T05:01:56;99515.75;;;10.82;97.29
36222;BME280;22266;52.340;4.962;2023-03-13T05:04:58;99492.94;;;10.84;97.01
36222;BME280;22266;52.340;4.962;2023-03-13T05:07:54;99500.81;;;10.86;97.21
36222;BME280;22266;52.340;4.962;2023-03-13T05:10:56;99507.38;;;10.90;97.06
36222;BME280;22266;52.340;4.962;2023-03-13T05:13:42;99515.44;;;10.90;96.74
36222;BME280;22266;52.340;4.962;2023-03-13T05:16:28;99497.88;;;10.87;97.04
36222;BME280;22266;52.340;4.962;2023-03-13T05:19:13;99497.41;;;10.91;96.64
36222;BME280;22266;52.340;4.962;2023-03-13T05:21:57;99493.56;;;10.98;95.96
36222;BME280;22266;52.340;4.962;2023-03-13T05:24:33;99492.41;;;11.06;95.83
36222;BME280;22266;52.340;4.962;2023-03-13T05:26:59;99492.19;;;11.07;95.11
36222;BME280;22266;52.340;4.962;2023-03-13T05:29:34;99470.38;;;10.97;95.13
36222;BME280;22266;52.340;4.962;2023-03-13T05:32:19;99472.50;;;10.95;95.41
36222;BME280;22266;52.340;4.962;2023-03-13T05:35:03;99484.91;;;10.96;95.26
36222;BME280;22266;52.340;4.962;2023-03-13T05:37:45;99481.97;;;10.98;94.91
36222;BME280;22266;52.340;4.962;2023-03-13T05:40:35;99473.09;;;11.09;94.06
36222;BME280;22266;52.340;4.962;2023-03-13T05:43:20;99476.84;;;11.08;93.83
36222;BME280;22266;52.340;4.962;2023-03-13T05:46:05;99468.78;;;11.08;93.68
36222;BME280;22266;52.340;4.962;2023-03-13T05:48:49;99469.69;;;11.02;93.37
36222;BME280;22266;52.340;4.962;2023-03-13T05:51:54;99465.34;;;11.01;93.13
36222;BME280;22266;52.340;4.962;2023-03-13T05:54:39;99458.56;;;10.98;92.73
36222;BME280;22266;52.340;4.962;2023-03-13T05:57:30;99450.97;;;11.07;92.08
36222;BME280;22266;52.340;4.962;2023-03-13T06:00:20;99471.47;;;11.08;91.93
36222;BME280;22266;52.340;4.962;2023-03-13T06:03:07;99464.91;;;11.04;91.52
36222;BME280;22266;52.340;4.962;2023-03-13T06:05:38;99449.31;;;11.06;91.47
36222;BME280;22266;52.340;4.962;2023-03-13T06:08:14;99438.44;;;11.12;90.95
36222;BME280;22266;52.340;4.962;2023-03-13T06:10:41;99459.41;;;11.10;90.67
36222;BME280;22266;52.340;4.962;2023-03-13T06:13:07;99451.00;;;11.19;89.77
36222;BME280;22266;52.340;4.962;2023-03-13T06:15:51;99448.19;;;11.25;89.42
36222;BME280;22266;52.340;4.962;2023-03-13T06:18:34;99449.97;;;11.31;89.08
36222;BME280;22266;52.340;4.962;2023-03-13T06:21:02;99437.53;;;11.30;88.80
36222;BME280;22266;52.340;4.962;2023-03-13T06:23:28;99453.81;;;11.35;88.45
36222;BME280;22266;52.340;4.962;2023-03-13T06:25:55;99467.28;;;11.35;88.20
36222;BME280;22266;52.340;4.962;2023-03-13T06:28:22;99471.50;;;11.31;88.50
36222;BME280;22266;52.340;4.962;2023-03-13T06:30:48;99465.66;;;11.23;89.32
36222;BME280;22266;52.340;4.962;2023-03-13T06:33:14;99473.47;;;11.24;89.29
36222;BME280;22266;52.340;4.962;2023-03-13T06:35:41;99469.53;;;11.38;88.47
36222;BME280;22266;52.340;4.962;2023-03-13T06:38:23;99456.06;;;11.38;88.37
36222;BME280;22266;52.340;4.962;2023-03-13T06:40:50;99470.34;;;11.39;88.47
36222;BME280;22266;52.340;4.962;2023-03-13T06:43:17;99469.63;;;11.32;89.04
36222;BME280;22266;52.340;4.962;2023-03-13T06:45:44;99473.16;;;11.32;89.43
36222;BME280;22266;52.340;4.962;2023-03-13T06:48:10;99483.81;;;11.27;89.97
36222;BME280;22266;52.340;4.962;2023-03-13T06:50:38;99471.50;;;11.20;90.71
36222;BME280;22266;52.340;4.962;2023-03-13T06:53:19;99472.31;;;11.20;91.24
36222;BME280;22266;52.340;4.962;2023-03-13T06:55:45;99479.56;;;11.20;91.49
36222;BME280;22266;52.340;4.962;2023-03-13T06:58:12;99478.28;;;11.10;91.97
36222;BME280;22266;52.340;4.962;2023-03-13T07:00:57;99485.03;;;11.13;92.59
36222;BME280;22266;52.340;4.962;2023-03-13T07:03:24;99473.25;;;11.14;92.88
36222;BME280;22266;52.340;4.962;2023-03-13T07:05:57;99475.56;;;11.10;93.11
36222;BME280;22266;52.340;4.962;2023-03-13T07:08:25;99477.66;;;11.08;93.17
36222;BME280;22266;52.340;4.962;2023-03-13T07:10:53;99492.31;;;11.12;93.66
36222;BME280;22266;52.340;4.962;2023-03-13T07:13:20;99482.16;;;11.14;93.44
36222;BME280;22266;52.340;4.962;2023-03-13T07:15:47;99501.34;;;11.18;93.48
36222;BME280;22266;52.340;4.962;2023-03-13T07:18:14;99495.13;;;11.18;93.56
36222;BME280;22266;52.340;4.962;2023-03-13T07:20:41;99488.09;;;11.17;93.71
36222;BME280;22266;52.340;4.962;2023-03-13T07:23:08;99479.66;;;11.13;93.60
36222;BME280;22266;52.340;4.962;2023-03-13T07:25:34;99477.91;;;11.07;94.35
36222;BME280;22266;52.340;4.962;2023-03-13T07:28:01;99497.22;;;11.04;94.41
36222;BME280;22266;52.340;4.962;2023-03-13T07:30:27;99491.84;;;11.16;94.78
36222;BME280;22266;52.340;4.962;2023-03-13T07:32:54;99480.84;;;11.17;94.35
36222;BME280;22266;52.340;4.962;2023-03-13T07:35:21;99484.72;;;11.21;94.25
36222;BME280;22266;52.340;4.962;2023-03-13T07:37:47;99479.56;;;11.20;94.15
36222;BME280;22266;52.340;4.962;2023-03-13T07:40:13;99487.41;;;11.21;93.80
36222;BME280;22266;52.340;4.962;2023-03-13T07:42:40;99477.13;;;11.18;94.35
36222;BME280;22266;52.340;4.962;2023-03-13T07:45:08;99517.28;;;11.20;94.13
36222;BME280;22266;52.340;4.962;2023-03-13T07:47:34;99497.22;;;11.04;94.52
36222;BME280;22266;52.340;4.962;2023-03-13T07:50:01;99505.88;;;11.06;94.88
36222;BME280;22266;52.340;4.962;2023-03-13T07:52:28;99518.50;;;11.05;94.81
36222;BME280;22266;52.340;4.962;2023-03-13T07:54:54;99474.28;;;11.13;94.53
36222;BME280;22266;52.340;4.962;2023-03-13T07:57:21;99472.75;;;11.17;94.51
36222;BME280;22266;52.340;4.962;2023-03-13T07:59:47;99468.69;;;11.14;94.36
36222;BME280;22266;52.340;4.962;2023-03-13T08:02:13;99463.28;;;11.14;93.87
36222;BME280;22266;52.340;4.962;2023-03-13T08:04:42;99455.56;;;11.18;93.44
36222;BME280;22266;52.340;4.962;2023-03-13T08:07:09;99455.56;;;11.18;93.17
36222;BME280;22266;52.340;4.962;2023-03-13T08:09:36;99454.16;;;11.27;93.17
36222;BME280;22266;52.340;4.962;2023-03-13T08:12:03;99454.88;;;11.34;92.38
36222;BME280;22266;52.340;4.962;2023-03-13T08:14:30;99460.97;;;11.42;92.00
36222;BME280;22266;52.340;4.962;2023-03-13T08:16:57;99446.31;;;11.37;91.64
36222;BME280;22266;52.340;4.962;2023-03-13T08:19:23;99460.50;;;11.45;91.40
36222;BME280;22266;52.340;4.962;2023-03-13T08:21:50;99448.78;;;11.39;91.26
36222;BME280;22266;52.340;4.962;2023-03-13T08:24:16;99441.88;;;11.43;90.69
36222;BME280;22266;52.340;4.962;2023-03-13T08:26:42;99435.78;;;11.48;90.57
36222;BME280;22266;52.340;4.962;2023-03-13T08:29:12;99444.22;;;11.39;91.15
36222;BME280;22266;52.340;4.962;2023-03-13T08:31:44;99434.38;;;11.45;90.71
36222;BME280;22266;52.340;4.962;2023-03-13T08:34:11;99432.63;;;11.51;90.14
36222;BME280;22266;52.340;4.962;2023-03-13T08:36:38;99446.91;;;11.51;90.29
36222;BME280;22266;52.340;4.962;2023-03-13T08:39:09;99438.59;;;11.53;90.51
36222;BME280;22266;52.340;4.962;2023-03-13T08:41:37;99422.78;;;11.45;91.00
36222;BME280;22266;52.340;4.962;2023-03-13T08:44:07;99420.91;;;11.45;91.15
36222;BME280;22266;52.340;4.962;2023-03-13T08:46:34;99421.00;;;11.50;90.99
36222;BME280;22266;52.340;4.962;2023-03-13T08:49:03;99430.50;;;11.53;90.04
36222;BME280;22266;52.340;4.962;2023-03-13T08:51:30;99400.75;;;11.48;89.90
36222;BME280;22266;52.340;4.962;2023-03-13T08:53:57;99423.94;;;11.49;89.64
36222;BME280;22266;52.340;4.962;2023-03-13T08:56:26;99407.41;;;11.57;88.26
36222;BME280;22266;52.340;4.962;2023-03-13T08:58:55;99415.25;;;11.58;87.48
36222;BME280;22266;52.340;4.962;2023-03-13T09:01:24;99415.25;;;11.70;86.21
36222;BME280;22266;52.340;4.962;2023-03-13T09:03:51;99402.94;;;11.62;85.73
36222;BME280;22266;52.340;4.962;2023-03-13T09:06:18;99402.94;;;11.74;85.77
36222;BME280;22266;52.340;4.962;2023-03-13T09:08:45;99386.16;;;12.07;84.87
36222;BME280;22266;52.340;4.962;2023-03-13T09:11:14;99388.22;;;12.17;82.73
36222;BME280;22266;52.340;4.962;2023-03-13T09:13:45;99384.31;;;12.25;82.17
36222;BME280;22266;52.340;4.962;2023-03-13T09:16:14;99380.16;;;12.34;80.55
36222;BME280;22266;52.340;4.962;2023-03-13T09:18:42;99385.91;;;12.37;79.02
36222;BME280;22266;52.340;4.962;2023-03-13T09:21:20;99371.75;;;12.47;78.68
36222;BME280;22266;52.340;4.962;2023-03-13T09:23:48;99356.06;;;12.44;76.07
36222;BME280;22266;52.340;4.962;2023-03-13T09:26:16;99363.66;;;12.47;75.51
36222;BME280;22266;52.340;4.962;2023-03-13T09:28:43;99372.69;;;12.53;74.91
36222;BME280;22266;52.340;4.962;2023-03-13T09:31:27;99403.53;;;12.57;74.40
36222;BME280;22266;52.340;4.962;2023-03-13T09:33:55;99366.22;;;12.54;74.25
36222;BME280;22266;52.340;4.962;2023-03-13T09:36:22;99352.16;;;12.52;74.26
36222;BME280;22266;52.340;4.962;2023-03-13T09:38:54;99365.53;;;12.47;74.91
36222;BME280;22266;52.340;4.962;2023-03-13T09:41:35;99342.81;;;12.43;74.26
36222;BME280;22266;52.340;4.962;2023-03-13T09:49:30;99333.44;;;12.79;74.49
36222;BME280;22266;52.340;4.962;2023-03-13T09:52:11;99321.25;;;12.76;74.44
36222;BME280;22266;52.340;4.962;2023-03-13T09:54:45;99319.19;;;12.83;74.75
36222;BME280;22266;52.340;4.962;2023-03-13T09:57:26;99305.75;;;13.05;74.96
36222;BME280;22266;52.340;4.962;2023-03-13T10:00:00;99300.69;;;13.09;75.24
36222;BME280;22266;52.340;4.962;2023-03-13T10:02:34;99310.53;;;13.20;74.64
36222;BME280;22266;52.340;4.962;2023-03-13T10:05:11;99302.63;;;13.30;74.52
36222;BME280;22266;52.340;4.962;2023-03-13T10:07:39;99302.56;;;13.25;74.59
36222;BME280;22266;52.340;4.962;2023-03-13T10:10:17;99282.63;;;13.31;73.97
36222;BME280;22266;52.340;4.962;2023-03-13T10:12:46;99278.78;;;13.27;74.58
36222;BME280;22266;52.340;4.962;2023-03-13T10:15:41;99289.59;;;13.27;74.43
36222;BME280;22266;52.340;4.962;2023-03-13T10:18:19;99288.28;;;13.30;74.15
36222;BME280;22266;52.340;4.962;2023-03-13T10:20:52;99298.19;;;13.24;74.53
36222;BME280;22266;52.340;4.962;2023-03-13T10:23:34;99297.97;;;13.26;74.69
36222;BME280;22266;52.340;4.962;2023-03-13T10:26:03;99308.66;;;13.38;74.64
36222;BME280;22266;52.340;4.962;2023-03-13T10:28:30;99305.16;;;13.37;73.74
36222;BME280;22266;52.340;4.962;2023-03-13T10:31:12;99305.97;;;13.38;73.16
36222;BME280;22266;52.340;4.962;2023-03-13T10:33:40;99324.41;;;13.24;72.96
36222;BME280;22266;52.340;4.962;2023-03-13T10:36:10;99309.59;;;13.26;73.60
36222;BME280;22266;52.340;4.962;2023-03-13T10:38:53;99325.44;;;13.40;73.12
36222;BME280;22266;52.340;4.962;2023-03-13T10:41:28;99335.59;;;13.32;70.92
36222;BME280;22266;52.340;4.962;2023-03-13T10:44:02;99306.34;;;13.46;70.61
36222;BME280;22266;52.340;4.962;2023-03-13T10:46:32;99308.34;;;13.56;69.86
36222;BME280;22266;52.340;4.962;2023-03-13T10:49:02;99306.09;;;13.70;69.65
36222;BME280;22266;52.340;4.962;2023-03-13T10:51:35;99302.94;;;13.56;68.55
36222;BME280;22266;52.340;4.962;2023-03-13T10:54:26;99290.00;;;13.58;68.67
36222;BME280;22266;52.340;4.962;2023-03-13T10:57:24;99300.50;;;13.54;69.08
36222;BME280;22266;52.340;4.962;2023-03-13T10:59:53;99294.13;;;13.44;68.60
36222;BME280;22266;52.340;4.962;2023-03-13T11:02:40;99282.78;;;13.42;69.21
36222;BME280;22266;52.340;4.962;2023-03-13T11:07:49;99284.16;;;13.66;67.69
36222;BME280;22266;52.340;4.962;2023-03-13T11:10:19;99305.78;;;13.66;68.22
36222;BME280;22266;52.340;4.962;2023-03-13T11:12:51;99281.78;;;13.70;68.79
36222;BME280;22266;52.340;4.962;2023-03-13T11:15:22;99286.66;;;13.73;68.41
36222;BME280;22266;52.340;4.962;2023-03-13T11:18:03;99286.34;;;13.69;68.40
36222;BME280;22266;52.340;4.962;2023-03-13T11:20:38;99282.44;;;13.60;68.17
36222;BME280;22266;52.340;4.962;2023-03-13T11:23:21;99295.28;;;13.70;68.90
36222;BME280;22266;52.340;4.962;2023-03-13T11:31:43;99314.88;;;14.04;66.08
36222;BME280;22266;52.340;4.962;2023-03-13T11:34:23;99299.91;;;13.96;63.96
36222;BME280;22266;52.340;4.962;2023-03-13T11:45:31;99292.22;;;14.10;62.27
36222;BME280;22266;52.340;4.962;2023-03-13T11:51:00;99304.63;;;14.06;60.48
36222;BME280;22266;52.340;4.962;2023-03-13T11:56:26;99271.00;;;14.29;60.20
36222;BME280;22266;52.340;4.962;2023-03-13T12:01:53;99299.81;;;14.72;59.62
36222;BME280;22266;52.340;4.962;2023-03-13T12:04:28;99267.88;;;14.74;58.73
36222;BME280;22266;52.340;4.962;2023-03-13T12:07:34;99291.13;;;14.70;58.67
36222;BME280;22266;52.340;4.962;2023-03-13T12:10:11;99300.50;;;14.57;58.50
36222;BME280;22266;52.340;4.962;2023-03-13T12:12:50;99301.38;;;14.36;59.79
36222;BME280;22266;52.340;4.962;2023-03-13T12:15:28;99309.50;;;14.09;59.92
36222;BME280;22266;52.340;4.962;2023-03-13T12:18:02;99289.75;;;14.08;60.31
36222;BME280;22266;52.340;4.962;2023-03-13T12:20:44;99301.66;;;14.07;59.84
36222;BME280;22266;52.340;4.962;2023-03-13T12:23:19;99284.56;;;14.02;60.35
36222;BME280;22266;52.340;4.962;2023-03-13T12:26:03;99272.06;;;14.28;60.53
36222;BME280;22266;52.340;4.962;2023-03-13T12:29:02;99275.91;;;14.32;59.68
36222;BME280;22266;52.340;4.962;2023-03-13T12:31:52;99282.41;;;14.31;60.13
36222;BME280;22266;52.340;4.962;2023-03-13T12:34:28;99265.63;;;14.34;60.24
36222;BME280;22266;52.340;4.962;2023-03-13T12:37:01;99238.03;;;14.37;60.55
36222;BME280;22266;52.340;4.962;2023-03-13T12:39:45;99249.13;;;14.35;60.54
36222;BME280;22266;52.340;4.962;2023-03-13T12:42:45;99231.41;;;14.50;60.91
36222;BME280;22266;52.340;4.962;2023-03-13T12:45:17;99241.53;;;14.65;60.91
36222;BME280;22266;52.340;4.962;2023-03-13T12:50:24;99250.28;;;14.45;61.17
36222;BME280;22266;52.340;4.962;2023-03-13T12:56:12;99255.69;;;14.13;61.60
36222;BME280;22266;52.340;4.962;2023-03-13T12:58:49;99254.09;;;14.17;60.69
36222;BME280;22266;52.340;4.962;2023-03-13T13:01:27;99233.84;;;14.19;58.69
36222;BME280;22266;52.340;4.962;2023-03-13T13:04:03;99237.19;;;14.31;58.36
36222;BME280;22266;52.340;4.962;2023-03-13T13:06:58;99233.59;;;14.53;57.03
36222;BME280;22266;52.340;4.962;2023-03-13T13:11:59;99191.66;;;14.55;55.46
36222;BME280;22266;52.340;4.962;2023-03-13T13:17:01;99229.81;;;14.54;55.95
36222;BME280;22266;52.340;4.962;2023-03-13T13:27:45;99188.44;;;14.26;55.41
36222;BME280;22266;52.340;4.962;2023-03-13T13:32:46;99199.63;;;14.40;55.12
36222;BME280;22266;52.340;4.962;2023-03-13T13:37:48;99190.19;;;14.43;55.08
36222;BME280;22266;52.340;4.962;2023-03-13T13:42:59;99197.03;;;14.50;55.03
36222;BME280;22266;52.340;4.962;2023-03-13T13:45:29;99206.47;;;14.48;54.61
36222;BME280;22266;52.340;4.962;2023-03-13T13:48:24;99190.88;;;14.60;54.87
36222;BME280;22266;52.340;4.962;2023-03-13T13:51:21;99208.03;;;14.39;55.40
36222;BME280;22266;52.340;4.962;2023-03-13T13:56:38;99168.38;;;14.22;56.15
36222;BME280;22266;52.340;4.962;2023-03-13T14:04:29;99205.88;;;14.08;56.55
36222;BME280;22266;52.340;4.962;2023-03-13T14:07:01;99190.88;;;14.28;56.93
36222;BME280;22266;52.340;4.962;2023-03-13T14:12:30;99177.53;;;14.16;55.18
36222;BME280;22266;52.340;4.962;2023-03-13T14:15:18;99193.16;;;14.09;54.92
36222;BME280;22266;52.340;4.962;2023-03-13T14:17:59;99196.44;;;14.11;55.12
36222;BME280;22266;52.340;4.962;2023-03-13T14:20:34;99201.81;;;14.06;54.15
36222;BME280;22266;52.340;4.962;2023-03-13T14:23:10;99193.38;;;14.02;54.85
36222;BME280;22266;52.340;4.962;2023-03-13T14:25:48;99178.19;;;14.01;54.54
36222;BME280;22266;52.340;4.962;2023-03-13T14:28:20;99178.03;;;14.13;54.52
36222;BME280;22266;52.340;4.962;2023-03-13T14:30:49;99163.47;;;14.19;54.57
36222;BME280;22266;52.340;4.962;2023-03-13T14:33:16;99183.56;;;14.28;54.07
36222;BME280;22266;52.340;4.962;2023-03-13T14:35:42;99148.38;;;14.28;54.38
36222;BME280;22266;52.340;4.962;2023-03-13T14:38:20;99145.06;;;14.16;54.20
36222;BME280;22266;52.340;4.962;2023-03-13T14:40:48;99169.88;;;14.08;54.81
36222;BME280;22266;52.340;4.962;2023-03-13T14:43:29;99157.19;;;14.14;54.09